Thursday, November 15, 2018, 8:49 PM EST
Back to Local

KDOV, Dover Air Force Base

Location: Dover, DE, United States Lat: 39.133
Local Time: 8:49 PM EST ( 1:49 GMT) Lon: -75.467
Time Zone: US/Eastern Elev: 29 ft

Show me the last for .
Show Decoded

2018-11-15 20:29 METAR KDOV 160129Z AUTO 06023G38KT 10SM OVC010 09/08 A2973 RMK AO2 RAE15 CIG
                 008V010 CIG 008 RWY19 SLP071 $ =
2018-11-15 20:21 METAR KDOV 160121Z AUTO 06030G38KT 10SM BKN008 OVC012 09/08 A2973 RMK AO2 RAE15
                 CIG 008V014 SLP071 $ =
2018-11-15 20:19 METAR KDOV 160119Z AUTO 06030G35KT 9SM OVC010 09/08 A2972 RMK AO2 RAE15 CIG
                 009V014 CIG 009 RWY19 PRESFR SLP068 $ =
2018-11-15 20:15 METAR KDOV 160115Z AUTO 06025G32KT 8SM BKN009 OVC014 09/08 A2974 RMK AO2 RAE15
                 CIG 009V014 BKN V SCT PRESFR SLP074 $ =
2018-11-15 20:09 METAR KDOV 160109Z AUTO 06026G35KT 6SM -RA BR SCT009 OVC014 09/08 A2977 RMK AO2
                 CIG 010V014 CIG 009 RWY19 PRESFR SLP084 $ =
2018-11-15 19:56 METAR KDOV 160056Z AUTO 06023G38KT 9SM -RA BKN010 OVC015 08/08 A2980 RMK AO2 PK
                 WND 06038/49 RAE52DZB52E54RAB54 CIG 008 RWY19 SLP095 P0006 T00830079 $ =
2018-11-15 19:51 METAR KDOV 160051Z 06026G38KT 8SM -RA BKN010 OVC015 08/08 A2980 RMK CIG 008
                 RWY19 SLP095 $ =
2018-11-15 19:49 METAR KDOV 160049Z AUTO 06025G31KT 8SM -RA BKN010 OVC015 08/08 A2980 RMK AO2 CIG
                 008 RWY19 PRESFR SLP095 $ =
2018-11-15 19:33 METAR KDOV 160033Z AUTO 05022G32KT 3SM -RA BR BKN009 OVC013 08/08 A2985 RMK AO2
                 CIG 009V015 CIG 006 RWY19 PRESFR SLP112 $ =
2018-11-15 19:21 METAR KDOV 160021Z AUTO 06023G33KT 4SM -RA BR FEW008 OVC015 08/08 A2987 RMK AO2
                 CIG 006 RWY19 SLP118 $ =
2018-11-15 19:13 METAR KDOV 160013Z 06022G33KT 4SM -RA BR SCT008 OVC014 08/08 A2988 RMK CIG 005
                 RWY19 SLP122 $ =
2018-11-15 19:01 METAR KDOV 160001Z AUTO 05021G29KT 3SM -RA BR FEW007 OVC012 08/07 A2988 RMK AO2
                 CIG 003 RWY19 SLP122 $ =
2018-11-15 18:57 METAR KDOV 152357Z AUTO 06021G28KT 2 3/4SM -RA BR FEW007 OVC012 08/07 A2988 RMK
                 AO2 CIG 003 RWY19 SLP122 $ =
2018-11-15 18:56 METAR KDOV 152356Z AUTO 06021G28KT 2 3/4SM -RA BR OVC010 08/07 A2988 RMK AO2 CIG
                 003 RWY19 SLP122 P0024 60082 T00760073 10076 20027 57055 $ =
2018-11-15 18:52 METAR KDOV 152352Z AUTO 05021G26KT 2 3/4SM -RA BR OVC010 08/07 A2988 RMK AO2 CIG
                 003 RWY19 PRESFR SLP122 $ =
2018-11-15 18:44 METAR KDOV 152344Z AUTO 05019G25KT 3SM -RA BR OVC010 06/06 A2990 RMK AO2 CIG 003
                 RWY19 SLP129 $ =
2018-11-15 18:36 METAR KDOV 152336Z AUTO 04014G18KT 2 3/4SM -RA BR OVC010 06/05 A2990 RMK AO2 VIS
                 2 1/4V3 CIG 003 RWY19 SLP129 $ =
2018-11-15 18:32 METAR KDOV 152332Z AUTO 04012G18KT 3SM -RA BR OVC010 05/05 A2991 RMK AO2 CIG 003
                 RWY19 SLP132 $ =
2018-11-15 18:28 METAR KDOV 152328Z AUTO 04012G18KT 2 1/2SM -RA BR OVC010 05/04 A2991 RMK AO2 VIS
                 1 1/2V2 1/2 CIG 003 RWY19 PRESFR SLP132 $ =
2018-11-15 18:16 METAR KDOV 152316Z AUTO 03015KT 1 5/8SM +RA BR OVC010 05/04 A2993 RMK AO2 CIG
                 008V010 CIG 003 RWY19 SLP139 $ =
2018-11-15 18:12 METAR KDOV 152312Z AUTO 04017KT 1 3/4SM +RA BR OVC008 04/04 A2992 RMK AO2 CIG
                 003 RWY19 PRESFR SLP135 $ =
2018-11-15 18:04 METAR KDOV 152304Z AUTO 02013KT 2SM -RA BR OVC008 04/04 A2994 RMK AO2 CIG 003
                 RWY19 SLP142 $ =
2018-11-15 17:56 METAR KDOV 152256Z AUTO 02016KT 1 3/4SM -RA BR OVC008 04/04 A2995 RMK AO2 CIG
                 006V008 CIG 003 RWY19 SLP145 P0021 T00410037 $ =
2018-11-15 17:52 METAR KDOV 152252Z AUTO 02016KT 1 3/4SM -RA BR OVC008 04/04 A2995 RMK AO2 CIG
                 005V008 CIG 003 RWY19 PRESFR SLP145 $ =
2018-11-15 17:44 METAR KDOV 152244Z AUTO 01014KT 1 7/8SM -RA BR OVC006 04/04 A2997 RMK AO2 CIG
                 003 RWY19 SLP152 $ =
2018-11-15 17:20 METAR KDOV 152220Z AUTO 01014KT 2 1/4SM -RA BR OVC005 04/04 A2997 RMK AO2 VIS 2
                 1/4V2 3/4 CIG 003 RWY19 SLP152 $ =
2018-11-15 17:00 METAR KDOV 152200Z AUTO 03013G20KT 2 1/4SM -RA BR OVC006 05/05 A2997 RMK AO2 VIS
                 1 3/8V2 1/4 CIG 003 RWY19 SLP152 $ =
2018-11-15 16:56 METAR KDOV 152156Z AUTO 04017KT 1 3/4SM -RA BR OVC006 05/05 A2997 RMK AO2 CIG
                 003 RWY19 SLP152 P0014 T00500046 $ =
2018-11-15 16:53 METAR KDOV 152153Z AUTO 03017G21KT 1 1/2SM -RA BR OVC006 05/04 A2997 RMK AO2 CIG
                 004 RWY19 SLP152 $ =
2018-11-15 16:49 METAR KDOV 152149Z AUTO 04014G23KT 1 3/8SM -RA BR OVC006 05/04 A2998 RMK AO2 VIS
                 1 3/8V2 CIG 004 RWY19 SLP156 $ =
2018-11-15 16:45 METAR KDOV 152145Z AUTO 03016G23KT 1 5/8SM -RA BR OVC006 05/04 A2998 RMK AO2 CIG
                 004 RWY19 PRESFR SLP156 $ =
2018-11-15 16:37 METAR KDOV 152137Z AUTO 03014G22KT 2SM -RA BR OVC006 05/04 A3000 RMK AO2 VIS 1
                 1/2V2 CIG 004 RWY19 SLP162 $ =
2018-11-15 16:25 METAR KDOV 152125Z AUTO 03014G23KT 1 1/2SM -RA BR OVC007 04/04 A3001 RMK AO2 VIS
                 1V1 1/2 CIG 004 RWY19 SLP166 $ =
2018-11-15 16:21 METAR KDOV 152121Z AUTO 03017G23KT 1 1/4SM -RA BR OVC007 04/04 A3002 RMK AO2 CIG
                 004 RWY19 SLP169 $ =
2018-11-15 16:17 METAR KDOV 152117Z AUTO 03014G24KT 1 1/8SM -RA BR VV007 04/04 A3002 RMK AO2 CIG
                 004 RWY19 SLP169 $ =
2018-11-15 16:12 METAR KDOV 152112Z AUTO 03017G24KT 1 1/8SM -RA BR OVC007 04/04 A3002 RMK AO2 VIS
                 1 1/8V1 5/8 CIG 004 RWY19 SLP169 $ =
2018-11-15 16:08 METAR KDOV 152108Z AUTO 03017G24KT 1 3/8SM -RA BR OVC007 04/04 A3003 RMK AO2 CIG
                 004 RWY19 SLP173 $ =
2018-11-15 16:04 METAR KDOV 152104Z AUTO 03016G24KT 1 5/8SM -RA BR OVC007 04/03 A3004 RMK AO2 CIG
                 004 RWY19 SLP176 $ =
2018-11-15 16:00 METAR KDOV 152100Z AUTO 03019G24KT 1 5/8SM -RA BR OVC008 04/03 A3004 RMK AO2 CIG
                 004 RWY19 SLP176 $ =
2018-11-15 15:56 METAR KDOV 152056Z AUTO 03016G24KT 1 3/8SM -RA BR OVC008 04/03 A3004 RMK AO2 PK
                 WND 04029/20 VIS 1 3/8V1 7/8 CIG 004 RWY19 SLP176 P0008 60023 T00400033 57067 $
                 =
2018-11-15 15:48 METAR KDOV 152048Z AUTO 03018G28KT 1 3/4SM -RA BR OVC008 04/03 A3004 RMK AO2 VIS
                 1 3/4V2 1/4 CIG 004 RWY19 SLP176 $ =
2018-11-15 15:28 METAR KDOV 152028Z AUTO 04018G29KT 2 1/4SM -RA BR OVC008 04/03 A3006 RMK AO2 VIS
                 1 3/4V2 1/4 CIG 008V011 CIG 004 RWY19 SLP183 $ =
2018-11-15 15:23 METAR KDOV 152023Z 03019G29KT 1 7/8SM -RA BR OVC008 04/04 A3005 RMK CIG 008V011
                 CIG 004 RWY19 PRESFR SLP179 $ =
2018-11-15 15:20 METAR KDOV 152020Z COR AUTO 03019G27KT 1 3/4SM -RA BR OVC008 04/04 A3016 RMK AO2
                 CIG 008V011 CIG 005 RWY19 SLP213 ALSTG/SLP ESTMD $ COR 2021 =
2018-11-15 15:08 METAR KDOV 152008Z COR 03020G28KT 1 5/8SM -RA BR SCT006 OVC011 04/04 A3016 RMK
                 AO2A CIG 006V011 CIG 005 RWY19 SLP213 ALSTG/SLP ESTMD $ COR 2012 =
2018-11-15 15:04 METAR KDOV 152004Z AUTO 03020G28KT 1 7/8SM -RA BR BKN006 OVC011 04/04 A3008 RMK
                 AO2 CIG 006V013 CIG 005 RWY19 SLP189 $ =
2018-11-15 14:56 METAR KDOV 151956Z AUTO 03018G27KT 1 7/8SM -RA BR SCT007 OVC013 04/04 A3009 RMK
                 AO2 PK WND 04029/25 VIS 1 7/8V3 CIG 007V013 CIG 006 RWY19 SLP193 P0007 T00440037
                 $ =
2018-11-15 14:48 METAR KDOV 151948Z AUTO 04021G27KT 2 1/2SM -RA BR BKN007 OVC013 04/04 A3010 RMK
                 AO2 VIS 2 1/2V3 CIG 006 RWY19 SLP196 $ =
2018-11-15 14:40 METAR KDOV 151940Z AUTO 04020G27KT 3SM -RA BR BKN007 OVC013 04/04 A3011 RMK AO2
                 CIG 006 RWY19 PRESFR SLP200 $ =
2018-11-15 14:24 METAR KDOV 151924Z AUTO 04018G28KT 2 3/4SM -RA BR BKN007 OVC011 04/04 A3014 RMK
                 AO2 CIG 006 RWY19 SLP210 $ =
2018-11-15 14:08 METAR KDOV 151908Z AUTO 04018G26KT 4SM -RA BR OVC008 04/03 A3015 RMK AO2 CIG 006
                 RWY19 SLP213 $ =
2018-11-15 13:56 METAR KDOV 151856Z AUTO 04020G27KT 8SM -RA OVC007 04/03 A3015 RMK AO2 CIG 006
                 RWY19 PRESFR SLP213 P0008 T00390032 $ =
2018-11-15 13:20 METAR KDOV 151820Z AUTO 04020G26KT 3SM RA BR OVC007 03/03 A3019 RMK AO2 CIG 005
                 RWY19 PRESFR SLP227 $ =
2018-11-15 13:19 METAR KDOV 151819Z 04020G26KT 3SM RA BR OVC007 03/03 A3019 RMK CIG 005 RWY19
                 PRESFR SLP227 $ =
2018-11-15 13:04 METAR KDOV 151804Z AUTO 03016G21KT 2SM -RA BR OVC007 03/02 A3023 RMK AO2 VIS 1
                 7/8V2 1/2 CIG 005 RWY19 SLP240 $ =
2018-11-15 13:00 METAR KDOV 151800Z AUTO 03018G21KT 1 7/8SM +RA BR OVC007 03/02 A3023 RMK AO2 VIS
                 1 7/8V2 3/4 CIG 005 RWY19 SLP240 $ =
2018-11-15 12:56 METAR KDOV 151756Z AUTO 03015KT 2 1/2SM RA BR OVC007 03/02 A3024 RMK AO2
                 RAE02SNB02E12RAB12 CIG 005 RWY19 PRESFR SLP244 P0017 60038 T00260019 10027 20013
                 57051 $ =
2018-11-15 12:40 METAR KDOV 151740Z AUTO 02013KT 2SM +RA BR OVC007 02/02 A3027 RMK AO2 VIS 2V2
                 3/4 RAE02SNB02E12RAB12 CIG 006 RWY19 SLP254 $ =
2018-11-15 12:32 METAR KDOV 151732Z AUTO 02014G20KT 2 3/4SM +RA BR OVC008 02/01 A3027 RMK AO2
                 RAE02SNB02E12RAB12 CIG 006 RWY19 PRESFR SLP254 $ =
2018-11-15 11:56 METAR KDOV 151656Z AUTO 02014KT 6SM RA BR OVC009 01/00 A3031 RMK AO2 CIG 008
                 RWY19 SLP267 P0010 T00140004 $ =
2018-11-15 11:51 METAR KDOV 151651Z AUTO 02013KT 6SM -RA BR OVC009 02/01 A3031 RMK AO2 CIG 007
                 RWY19 PRESFR SLP267 $ =
2018-11-15 11:45 METAR KDOV 151645Z AUTO 01011KT 6SM -RA BR BKN010 OVC021 02/01 A3034 RMK AO2 CIG
                 010V023 CIG 008 RWY19 SLP278 $ =
2018-11-15 11:25 METAR KDOV 151625Z AUTO 02012KT 5SM RA BR FEW009 BKN023 02/01 A3034 RMK AO2 CIG
                 022 RWY19 SLP278 $ =
2018-11-15 10:57 METAR KDOV 151557Z 03011KT 5SM -RAPL BR BKN033 OVC075 01/00 A3036 RMK AO2A
                 PRESFR SLP284 P0008 T00140002 $ =
2018-11-15 10:45 METAR KDOV 151545Z 03011KT 6SM -RAPL BR BKN037 OVC075 02/00 A3038 RMK SLP291 $ =
2018-11-15 10:27 METAR KDOV 151527Z 03010G19KT 8SM -RA BKN030 OVC075 02/00 A3037 RMK SLP288 $ =
2018-11-15 09:56 METAR KDOV 151456Z 03013KT 7SM -PLRA OVC027 01/00 A3040 RMK AO2A SLP298 P0003
                 60003 T00141004 57030 $ =
2018-11-15 09:20 METAR KDOV 151420Z COR 03014KT 7SM -PLRA OVC035 01/M01 A3041 RMK AO2A PRESFR
                 SLP301 $ COR 1428 =
2018-11-15 09:06 METAR KDOV 151406Z 03011G17KT 5SM -PLSN OVC035 02/M02 A3043 RMK SLP308 $ =
2018-11-15 08:56 METAR KDOV 151356Z 03011KT 7SM -PLSNSG FEW035 03/M02 A3043 RMK AO2A
                 RAB42E52SNB52 PRESFR SLP308 P0000 T00261019 $ =
2018-11-15 07:56 METAR KDOV 151256Z AUTO 03011KT 10SM SCT036 03/M03 A3047 RMK AO2 SLP322
                 T00261029 $ =
2018-11-15 06:56 METAR KDOV 151156Z AUTO 04011KT 10SM BKN037 02/M04 A3049 RMK AO2 SLP328
                 T00241037 10024 20014 58010 $ =
2018-11-15 05:56 METAR KDOV 151056Z AUTO 05013KT 10SM OVC034 02/M05 A3048 RMK AO2 SLP325
                 T00191046 $ =
2018-11-15 04:56 METAR KDOV 150956Z AUTO 02010KT 10SM BKN037 02/M06 A3051 RMK AO2 SLP335
                 T00161056 $ =
2018-11-15 03:56 METAR KDOV 150856Z AUTO 01011KT 10SM CLR 02/M06 A3051 RMK AO2 SLP335 T00181056
                 57014 $ =
2018-11-15 02:56 METAR KDOV 150756Z AUTO 02011KT 10SM BKN170 02/M06 A3053 RMK AO2 SLP342
                 T00191060 $ =
2018-11-15 01:56 METAR KDOV 150656Z AUTO 03009KT 10SM SCT220 02/M06 A3054 RMK AO2 SLP345
                 T00181065 $ =
2018-11-15 00:56 METAR KDOV 150556Z AUTO 03014KT 10SM CLR 02/M06 A3055 RMK AO2 SLP349 T00211065
                 10040 20021 50002 $ =
2018-11-14 23:56 METAR KDOV 150456Z AUTO 03014G19KT 10SM CLR 03/M07 A3055 RMK AO2 SLP349
                 T00271072 400670027 $ =
2018-11-14 22:56 METAR KDOV 150356Z AUTO 02010KT 10SM FEW220 03/M07 A3056 RMK AO2 SLP352
                 T00291073 $ =
2018-11-14 21:56 METAR KDOV 150256Z AUTO 02011KT 10SM CLR 03/M06 A3055 RMK AO2 SLP349 T00291060
                 52018 $ =
2018-11-14 20:56 METAR KDOV 150156Z AUTO 36011KT 10SM CLR 03/M06 A3054 RMK AO2 SLP345 T00331056 $
                 =

Support USWX by starting your Amazon purchase here.